createdAt,value
2023-05-15T00:00:16.693Z,70.70
2023-05-15T00:02:43.396Z,72.05
2023-05-15T00:05:13.018Z,71.02
2023-05-15T00:07:40.833Z,72.10
2023-05-15T00:10:08.172Z,72.18
2023-05-15T00:12:34.816Z,70.40
2023-05-15T00:15:01.455Z,71.90
2023-05-15T00:17:28.198Z,71.97
2023-05-15T00:19:54.848Z,72.46
2023-05-15T00:22:21.467Z,71.48
2023-05-15T00:24:48.184Z,73.35
2023-05-15T00:27:14.810Z,73.36
2023-05-15T00:29:41.442Z,76.89
2023-05-15T00:32:08.128Z,75.52
2023-05-15T00:34:34.751Z,76.06
2023-05-15T00:37:01.473Z,74.81
2023-05-15T00:39:28.115Z,74.89
2023-05-15T00:41:55.817Z,74.45
2023-05-15T00:44:25.238Z,74.27
2023-05-15T00:46:54.559Z,74.48
2023-05-15T00:49:22.540Z,75.12
2023-05-15T00:51:50.683Z,77.48
2023-05-15T00:54:17.460Z,77.28
2023-05-15T00:56:45.825Z,77.08
2023-05-15T00:59:13.214Z,77.34
2023-05-15T01:01:40.248Z,77.27
2023-05-15T01:04:07.185Z,76.38
2023-05-15T01:06:33.851Z,75.23
2023-05-15T01:09:01.151Z,74.63
2023-05-15T01:11:28.859Z,73.72
2023-05-15T01:13:55.800Z,72.97
2023-05-15T01:16:22.465Z,72.77
2023-05-15T01:18:49.240Z,74.46
2023-05-15T01:21:37.248Z,75.68
2023-05-15T01:24:28.764Z,75.87
2023-05-15T01:27:07.820Z,75.66
2023-05-15T01:29:41.269Z,75.87
2023-05-15T01:32:40.471Z,73.93
2023-05-15T01:35:15.877Z,74.29
2023-05-15T01:37:48.373Z,74.98
2023-05-15T01:40:18.929Z,78.12
2023-05-15T01:42:53.990Z,78.68
2023-05-15T01:45:24.503Z,79.58
2023-05-15T01:47:54.450Z,79.91
2023-05-15T01:50:22.107Z,80.33
2023-05-15T01:52:53.774Z,80.36
2023-05-15T01:55:23.790Z,78.43
2023-05-15T01:57:52.155Z,78.24
2023-05-15T02:00:20.583Z,77.67
2023-05-15T02:02:49.446Z,76.77
2023-05-15T02:05:17.701Z,75.20
2023-05-15T02:07:45.808Z,74.56
2023-05-15T02:10:13.720Z,73.44
2023-05-15T02:12:42.291Z,72.78
2023-05-15T02:15:10.447Z,72.70
2023-05-15T02:17:38.306Z,73.04
2023-05-15T02:20:05.836Z,72.67
2023-05-15T02:22:32.519Z,72.46
2023-05-15T02:24:59.172Z,72.00
2023-05-15T02:27:46.574Z,73.11
2023-05-15T02:30:28.225Z,74.84
2023-05-15T02:33:31.772Z,73.54
2023-05-15T02:36:20.141Z,75.45
2023-05-15T02:38:53.223Z,75.66
2023-05-15T02:41:21.707Z,76.25
2023-05-15T02:43:51.573Z,77.13
2023-05-15T02:46:20.444Z,77.33
2023-05-15T02:48:48.954Z,76.55
2023-05-15T02:51:15.935Z,75.64
2023-05-15T02:53:43.138Z,75.39
2023-05-15T02:56:10.266Z,75.10
2023-05-15T02:58:38.600Z,75.01
2023-05-15T03:01:05.707Z,74.26
2023-05-15T03:03:32.611Z,74.55
2023-05-15T03:05:59.274Z,75.39
2023-05-15T03:08:25.922Z,75.05
2023-05-15T03:10:52.617Z,76.00
2023-05-15T03:13:19.215Z,77.14
2023-05-15T03:15:45.997Z,77.08
2023-05-15T03:18:13.093Z,77.00
2023-05-15T03:20:39.758Z,77.13
2023-05-15T03:23:06.511Z,78.75
2023-05-15T03:25:33.149Z,78.40
2023-05-15T03:27:59.757Z,76.58
2023-05-15T03:30:26.522Z,76.76
2023-05-15T03:32:53.240Z,76.96
2023-05-15T03:35:19.878Z,75.91
2023-05-15T03:37:46.594Z,74.83
2023-05-15T03:40:13.850Z,75.39
2023-05-15T03:42:40.480Z,76.08
2023-05-15T03:45:08.026Z,77.32
2023-05-15T03:47:34.793Z,78.70
2023-05-15T03:50:01.464Z,81.27
2023-05-15T03:52:28.171Z,80.61
2023-05-15T03:54:54.808Z,79.87
2023-05-15T03:57:21.416Z,79.01
2023-05-15T03:59:50.048Z,76.73
2023-05-15T04:02:16.724Z,76.78
2023-05-15T04:04:43.471Z,77.06
2023-05-15T04:07:10.368Z,76.22
2023-05-15T04:09:37.000Z,76.80
2023-05-15T04:12:03.932Z,77.76
2023-05-15T04:14:30.530Z,76.93
2023-05-15T04:16:57.211Z,76.32
2023-05-15T04:19:23.845Z,75.40
2023-05-15T04:21:50.520Z,74.74
2023-05-15T04:24:17.131Z,73.91
2023-05-15T04:26:43.788Z,73.77
2023-05-15T04:29:10.413Z,73.54
2023-05-15T04:31:37.099Z,73.35
2023-05-15T04:34:03.737Z,73.01
2023-05-15T04:36:30.490Z,74.78
2023-05-15T04:38:57.132Z,76.87
2023-05-15T04:41:23.846Z,77.04
2023-05-15T04:43:50.522Z,77.10
2023-05-15T04:46:17.281Z,78.22
2023-05-15T04:48:43.962Z,78.60
2023-05-15T04:51:10.687Z,80.20
2023-05-15T04:53:37.263Z,80.06
2023-05-15T04:56:03.986Z,79.89
2023-05-15T04:58:30.617Z,80.02
2023-05-15T05:00:57.212Z,81.03
2023-05-15T05:03:23.865Z,82.26
2023-05-15T05:05:50.493Z,81.89
2023-05-15T05:08:17.194Z,81.76
2023-05-15T05:10:43.835Z,82.05
2023-05-15T05:13:10.476Z,81.66
2023-05-15T05:15:37.109Z,79.08
2023-05-15T05:18:04.116Z,76.62
2023-05-15T05:20:30.785Z,75.24
2023-05-15T05:22:57.432Z,76.41
2023-05-15T05:25:24.389Z,75.11
2023-05-15T05:27:51.319Z,73.84
2023-05-15T05:30:18.197Z,75.18
2023-05-15T05:32:44.964Z,76.72
2023-05-15T05:35:14.132Z,77.47
2023-05-15T05:37:41.487Z,75.97
2023-05-15T05:40:09.125Z,75.48
2023-05-15T05:42:38.521Z,74.86
2023-05-15T05:45:06.827Z,74.23
2023-05-15T05:47:33.505Z,73.41
2023-05-15T05:50:00.249Z,72.60
2023-05-15T05:52:26.878Z,70.86
2023-05-15T05:54:53.504Z,71.03
2023-05-15T05:57:20.180Z,70.52
2023-05-15T05:59:46.918Z,69.64
2023-05-15T06:02:13.630Z,72.00
2023-05-15T06:04:40.337Z,70.11
2023-05-15T06:07:07.006Z,70.33
2023-05-15T06:09:33.638Z,69.10
2023-05-15T06:12:00.263Z,67.09
2023-05-15T06:14:26.864Z,66.66
2023-05-15T06:16:56.164Z,66.43
2023-05-15T06:19:22.908Z,65.71
2023-05-15T06:21:49.617Z,62.57
2023-05-15T06:24:16.273Z,66.17
2023-05-15T06:26:43.259Z,65.27
2023-05-15T06:29:09.968Z,65.65
2023-05-15T06:31:36.586Z,66.05
2023-05-15T06:34:03.260Z,65.18
2023-05-15T06:36:29.884Z,68.19
2023-05-15T06:38:56.499Z,70.91
2023-05-15T06:41:23.186Z,70.25
2023-05-15T06:43:49.901Z,70.44
2023-05-15T06:46:16.621Z,70.31
2023-05-15T06:48:43.273Z,72.06
2023-05-15T06:51:10.274Z,70.20
2023-05-15T06:53:36.879Z,71.50
2023-05-15T06:56:03.613Z,72.56
2023-05-15T06:58:30.272Z,71.08
2023-05-15T07:00:57.743Z,69.65
2023-05-15T07:03:26.020Z,63.35
2023-05-15T07:05:53.472Z,64.35
2023-05-15T07:08:20.163Z,61.55
2023-05-15T07:10:46.963Z,60.40
2023-05-15T07:13:13.574Z,59.32
2023-05-15T07:15:40.277Z,60.68
2023-05-15T07:18:07.013Z,60.86
2023-05-15T07:20:35.141Z,59.18
2023-05-15T07:23:03.501Z,55.69
2023-05-15T07:25:30.137Z,57.76
2023-05-15T07:27:56.981Z,61.03
2023-05-15T07:30:25.450Z,58.49
2023-05-15T07:32:52.224Z,58.68
2023-05-15T07:35:18.985Z,57.71
2023-05-15T07:37:45.649Z,56.75
2023-05-15T07:40:12.464Z,55.33
2023-05-15T07:42:39.066Z,59.22
2023-05-15T07:45:09.328Z,63.89
2023-05-15T07:47:36.173Z,67.51
2023-05-15T07:50:05.066Z,68.96
2023-05-15T07:55:00.740Z,66.46
2023-05-15T07:57:27.383Z,66.90
2023-05-15T07:59:54.067Z,65.12
2023-05-15T08:02:20.942Z,64.20
2023-05-15T08:04:47.657Z,63.05
2023-05-15T08:07:14.899Z,61.39
2023-05-15T08:09:42.178Z,60.65
2023-05-15T08:12:20.098Z,60.29
2023-05-15T08:14:56.660Z,62.43
2023-05-15T08:17:25.095Z,66.14
2023-05-15T08:19:52.563Z,67.75
2023-05-15T08:22:19.232Z,68.59
2023-05-15T08:24:45.907Z,67.73
2023-05-15T08:27:12.663Z,66.95
2023-05-15T08:29:39.672Z,66.69
2023-05-15T08:32:07.698Z,66.24
2023-05-15T08:34:34.648Z,65.86
2023-05-15T08:37:05.034Z,65.71
2023-05-15T08:39:31.796Z,65.41
2023-05-15T08:42:15.505Z,64.59
2023-05-15T08:44:42.602Z,67.10
2023-05-15T08:47:09.853Z,67.38
2023-05-15T08:50:06.980Z,67.44
2023-05-15T08:52:34.441Z,68.26
2023-05-15T08:55:03.474Z,70.64
2023-05-15T08:57:30.607Z,71.15
2023-05-15T08:59:58.118Z,70.64
2023-05-15T09:02:25.105Z,72.07
2023-05-15T09:04:52.328Z,71.05
2023-05-15T09:07:20.386Z,70.31
2023-05-15T09:09:47.565Z,70.31
2023-05-15T09:12:19.003Z,69.10
2023-05-15T09:14:45.777Z,66.88
2023-05-15T09:17:12.999Z,67.22
2023-05-15T09:19:40.283Z,67.08
2023-05-15T09:22:20.724Z,66.37
2023-05-15T09:24:47.566Z,64.10
2023-05-15T09:27:15.210Z,65.37
2023-05-15T09:29:42.111Z,63.68
2023-05-15T09:32:11.007Z,66.52
2023-05-15T09:34:42.576Z,67.75
2023-05-15T09:37:11.182Z,64.61
2023-05-15T09:39:44.694Z,65.00
2023-05-15T09:42:15.949Z,66.31
2023-05-15T09:44:44.498Z,61.04
2023-05-15T09:47:12.919Z,60.12
2023-05-15T09:49:39.981Z,61.42
2023-05-15T09:52:10.347Z,59.49
2023-05-15T09:54:37.543Z,60.05
2023-05-15T09:57:11.760Z,60.60
2023-05-15T09:59:46.792Z,60.76
2023-05-15T10:02:23.798Z,63.07
2023-05-15T10:04:58.030Z,63.90
2023-05-15T10:07:35.321Z,66.44
2023-05-15T10:10:04.607Z,66.59
2023-05-15T10:12:32.041Z,66.04
2023-05-15T10:15:03.161Z,66.11
2023-05-15T10:17:34.460Z,67.93
2023-05-15T10:20:02.556Z,67.55
2023-05-15T10:22:32.518Z,66.38
2023-05-15T10:25:41.238Z,65.19
2023-05-15T10:28:10.591Z,63.73
2023-05-15T10:30:38.589Z,64.79
2023-05-15T10:33:08.028Z,63.62
2023-05-15T10:35:35.331Z,68.49
2023-05-15T10:38:05.987Z,67.56
2023-05-15T10:40:36.501Z,69.61
2023-05-15T10:43:04.981Z,64.62
2023-05-15T10:45:34.274Z,61.93
2023-05-15T10:48:09.668Z,60.38
2023-05-15T10:50:39.576Z,59.84
2023-05-15T10:56:04.412Z,56.55
2023-05-15T10:58:31.366Z,54.61
2023-05-15T11:01:05.173Z,53.10
2023-05-15T11:03:48.843Z,52.45
2023-05-15T11:06:16.214Z,55.52
2023-05-15T11:08:43.363Z,53.79
2023-05-15T11:11:48.552Z,52.68
2023-05-15T11:14:15.244Z,54.92
2023-05-15T11:16:54.315Z,55.71
2023-05-15T11:19:39.876Z,53.60
2023-05-15T11:22:09.264Z,52.82
2023-05-15T11:24:57.704Z,58.19
2023-05-15T11:27:33.545Z,59.38
2023-05-15T11:30:13.452Z,56.23
2023-05-15T11:32:50.741Z,55.66
2023-05-15T11:35:51.372Z,57.56
2023-05-15T11:38:23.467Z,57.52
2023-05-15T11:40:54.905Z,61.53
2023-05-15T11:43:32.823Z,61.77
2023-05-15T11:46:13.176Z,50.93
2023-05-15T11:48:40.830Z,52.66
2023-05-15T11:51:26.305Z,54.48
2023-05-15T11:53:58.061Z,55.00
2023-05-15T11:56:27.216Z,53.85
2023-05-15T11:59:00.870Z,55.82
2023-05-15T12:01:27.527Z,55.14
2023-05-15T12:03:54.912Z,58.65
2023-05-15T12:06:22.620Z,59.47
2023-05-15T12:08:53.589Z,60.61
2023-05-15T12:11:24.607Z,59.41
2023-05-15T12:13:55.378Z,58.59
2023-05-15T12:16:26.313Z,56.90
2023-05-15T12:18:53.757Z,57.47
2023-05-15T12:21:20.450Z,55.46
2023-05-15T12:24:03.359Z,55.51
2023-05-15T12:26:33.666Z,54.16
2023-05-15T12:29:00.664Z,56.28
2023-05-15T12:31:27.774Z,53.77
2023-05-15T12:33:56.369Z,56.43
2023-05-15T12:36:24.042Z,52.36
2023-05-15T12:38:50.996Z,51.88
2023-05-15T12:41:17.864Z,51.39
2023-05-15T12:43:44.584Z,52.97
2023-05-15T12:46:13.623Z,54.23
2023-05-15T12:48:41.044Z,54.18
2023-05-15T12:51:10.918Z,52.79
2023-05-15T12:53:37.686Z,51.94
2023-05-15T12:56:04.792Z,48.84
2023-05-15T12:58:31.718Z,52.34
2023-05-15T13:00:58.422Z,56.15
2023-05-15T13:03:25.378Z,56.14
2023-05-15T13:05:52.548Z,56.89
2023-05-15T13:08:22.419Z,59.61
2023-05-15T13:10:56.798Z,58.57
2023-05-15T13:13:23.773Z,60.96
2023-05-15T13:15:50.607Z,62.91
2023-05-15T13:18:18.381Z,64.05
2023-05-15T13:20:50.523Z,64.48
2023-05-15T13:23:21.947Z,73.85
2023-05-15T13:25:52.780Z,76.00
2023-05-15T13:28:19.474Z,75.69
2023-05-15T13:30:46.184Z,77.43
2023-05-15T13:33:13.250Z,76.12
2023-05-15T13:35:41.654Z,78.27
2023-05-15T13:38:11.176Z,76.32
2023-05-15T13:40:41.141Z,78.18
2023-05-15T13:43:07.931Z,78.29
2023-05-15T13:45:34.724Z,70.78
2023-05-15T13:48:01.438Z,69.29
2023-05-15T13:50:28.272Z,69.45
2023-05-15T13:52:55.346Z,72.13
2023-05-15T13:55:23.124Z,71.38
2023-05-15T13:57:50.209Z,70.62
2023-05-15T14:00:17.360Z,69.89
2023-05-15T14:02:44.945Z,69.54
2023-05-15T14:05:14.371Z,66.32
2023-05-15T14:07:42.109Z,64.40
2023-05-15T14:10:09.530Z,65.93
2023-05-15T14:12:37.417Z,67.17
2023-05-15T14:15:04.387Z,67.96
2023-05-15T14:17:31.061Z,67.20
2023-05-15T14:19:57.732Z,65.75
2023-05-15T14:22:24.373Z,62.63
2023-05-15T14:24:51.957Z,63.58
2023-05-15T14:27:18.756Z,65.50
2023-05-15T14:29:45.509Z,61.08
2023-05-15T14:32:12.207Z,62.13
2023-05-15T14:34:39.054Z,63.60
2023-05-15T14:37:05.820Z,65.83
2023-05-15T14:39:32.514Z,66.34
2023-05-15T14:42:01.088Z,66.02
2023-05-15T14:44:28.341Z,61.92
2023-05-15T14:47:12.460Z,63.49
2023-05-15T14:49:39.876Z,64.13
2023-05-15T14:52:08.904Z,63.53
2023-05-15T14:54:36.452Z,67.41
2023-05-15T14:57:03.396Z,67.57
2023-05-15T14:59:30.318Z,65.90
2023-05-15T15:01:57.096Z,68.48
2023-05-15T15:04:23.934Z,64.15
2023-05-15T15:06:50.627Z,66.06
2023-05-15T15:09:19.511Z,65.84
2023-05-15T15:11:48.534Z,65.22
2023-05-15T15:14:15.606Z,65.81
2023-05-15T15:16:42.331Z,62.27
2023-05-15T15:19:09.417Z,63.36
2023-05-15T15:21:36.051Z,62.08
2023-05-15T15:24:02.713Z,64.58
2023-05-15T15:26:29.366Z,65.43
2023-05-15T15:28:56.019Z,66.48
2023-05-15T15:31:22.711Z,66.85
2023-05-15T15:33:49.337Z,69.19
2023-05-15T15:36:16.036Z,67.51
2023-05-15T15:38:42.672Z,67.43
2023-05-15T15:41:09.446Z,66.77
2023-05-15T15:43:36.074Z,68.53
2023-05-15T15:46:03.002Z,69.15
2023-05-15T15:48:29.742Z,68.47
2023-05-15T15:50:56.483Z,65.03
2023-05-15T15:53:23.837Z,65.29
2023-05-15T15:55:50.507Z,65.50
2023-05-15T15:58:17.149Z,66.31
2023-05-15T16:00:43.747Z,65.92
2023-05-15T16:03:10.464Z,64.79
2023-05-15T16:05:37.124Z,65.34
2023-05-15T16:08:03.832Z,64.09
2023-05-15T16:10:30.908Z,64.55
2023-05-15T16:12:57.757Z,62.72
2023-05-15T16:15:24.503Z,64.62
2023-05-15T16:17:52.858Z,63.27
2023-05-15T16:20:20.311Z,64.74
2023-05-15T16:22:47.023Z,61.96
2023-05-15T16:25:13.682Z,64.31
2023-05-15T16:27:40.391Z,64.05
2023-05-15T16:30:07.678Z,61.90
2023-05-15T16:32:34.400Z,61.57
2023-05-15T16:35:01.060Z,62.18
2023-05-15T16:37:27.964Z,61.69
2023-05-15T16:39:54.643Z,62.01
2023-05-15T16:42:21.314Z,61.90
2023-05-15T16:44:47.932Z,64.21
2023-05-15T16:47:14.579Z,63.20
2023-05-15T16:49:43.922Z,63.47
2023-05-15T16:52:11.362Z,64.98
2023-05-15T16:54:37.979Z,63.77
2023-05-15T16:57:05.008Z,65.44
2023-05-15T16:59:31.686Z,66.40
2023-05-15T17:01:58.468Z,66.96
2023-05-15T17:04:25.208Z,67.36
2023-05-15T17:06:51.955Z,66.62
2023-05-15T17:09:18.640Z,67.21
2023-05-15T17:11:45.331Z,66.65
2023-05-15T17:14:12.042Z,66.92
2023-05-15T17:16:39.180Z,66.93
2023-05-15T17:19:06.142Z,65.65
2023-05-15T17:21:33.004Z,64.56
2023-05-15T17:23:59.682Z,64.50
2023-05-15T17:26:26.681Z,63.02
2023-05-15T17:28:53.368Z,62.76
2023-05-15T17:31:19.997Z,63.00
2023-05-15T17:33:47.840Z,63.65
2023-05-15T17:36:14.680Z,62.68
2023-05-15T17:38:41.333Z,63.78
2023-05-15T17:41:08.030Z,63.49
2023-05-15T17:43:34.703Z,64.44
2023-05-15T17:46:01.474Z,63.45
2023-05-15T17:48:28.198Z,64.05
2023-05-15T17:50:54.830Z,63.89
2023-05-15T17:53:21.454Z,63.95
2023-05-15T17:55:48.286Z,63.08
2023-05-15T17:58:14.991Z,62.89
2023-05-15T18:00:41.645Z,62.58
2023-05-15T18:03:08.379Z,63.57
2023-05-15T18:05:35.191Z,62.58
2023-05-15T18:08:01.817Z,63.49
2023-05-15T18:10:28.488Z,63.55
2023-05-15T18:12:55.200Z,63.52
2023-05-15T18:15:21.906Z,64.87
2023-05-15T18:17:48.584Z,67.06
2023-05-15T18:20:15.246Z,68.50
2023-05-15T18:22:42.154Z,68.74
2023-05-15T18:25:09.102Z,69.79
2023-05-15T18:27:35.695Z,70.22
2023-05-15T18:30:02.860Z,69.91
2023-05-15T18:32:32.409Z,70.17
2023-05-15T18:34:59.771Z,70.36
2023-05-15T18:37:26.420Z,69.89
2023-05-15T18:39:53.059Z,69.88
2023-05-15T18:42:19.721Z,70.24
2023-05-15T18:44:46.434Z,70.55
2023-05-15T18:47:13.152Z,71.03
2023-05-15T18:49:39.834Z,70.78
2023-05-15T18:52:06.732Z,70.08
2023-05-15T18:54:33.531Z,69.33
2023-05-15T18:57:00.277Z,68.04
2023-05-15T18:59:28.586Z,66.24
2023-05-15T19:01:55.426Z,65.94
2023-05-15T19:04:22.108Z,65.04
2023-05-15T19:06:48.738Z,63.37
2023-05-15T19:09:15.480Z,63.33
2023-05-15T19:11:42.113Z,64.88
2023-05-15T19:14:08.764Z,64.27
2023-05-15T19:16:35.837Z,63.87
2023-05-15T19:19:02.495Z,63.00
2023-05-15T19:21:29.187Z,63.69
2023-05-15T19:23:55.822Z,64.78
2023-05-15T19:26:22.472Z,63.53
2023-05-15T19:28:49.150Z,63.94
2023-05-15T19:31:27.913Z,64.20
2023-05-15T19:33:58.514Z,64.20
2023-05-15T19:36:25.235Z,64.20
2023-05-15T19:38:51.913Z,64.26
2023-05-15T19:41:18.549Z,64.44
2023-05-15T19:43:45.183Z,64.80
2023-05-15T19:46:13.095Z,64.93
2023-05-15T19:48:39.749Z,64.79
2023-05-15T19:51:06.417Z,64.51
2023-05-15T19:53:33.039Z,64.23
2023-05-15T19:55:59.760Z,64.33
2023-05-15T19:58:26.476Z,65.02
2023-05-15T20:00:54.051Z,64.57
2023-05-15T20:03:21.396Z,64.98
2023-05-15T20:05:48.556Z,64.58
2023-05-15T20:08:15.226Z,65.01
2023-05-15T20:10:41.844Z,63.98
2023-05-15T20:13:09.581Z,64.01
2023-05-15T20:15:36.209Z,64.00
2023-05-15T20:18:02.930Z,64.34
2023-05-15T20:20:29.642Z,63.79
2023-05-15T20:22:56.255Z,64.70
2023-05-15T20:25:24.268Z,65.34
2023-05-15T20:27:53.703Z,65.76
2023-05-15T20:30:20.313Z,67.42
2023-05-15T20:32:47.030Z,69.09
2023-05-15T20:35:13.860Z,71.45
2023-05-15T20:37:40.867Z,72.33
2023-05-15T20:40:08.247Z,72.40
2023-05-15T20:42:34.976Z,73.29
2023-05-15T20:45:01.965Z,73.05
2023-05-15T20:47:28.709Z,73.14
2023-05-15T20:49:58.495Z,73.75
2023-05-15T20:52:25.264Z,73.26
2023-05-15T20:54:52.028Z,73.09
2023-05-15T20:57:18.694Z,72.87
2023-05-15T20:59:49.577Z,72.54
2023-05-15T21:02:16.687Z,72.35
2023-05-15T21:04:46.076Z,72.70
2023-05-15T21:07:13.630Z,72.24
2023-05-15T21:09:40.275Z,71.54
2023-05-15T21:12:07.336Z,72.39
2023-05-15T21:14:35.994Z,71.90
2023-05-15T21:17:02.823Z,71.99
2023-05-15T21:19:30.032Z,73.05
2023-05-15T21:21:56.716Z,72.43
2023-05-15T21:24:23.312Z,72.90
2023-05-15T21:26:49.941Z,72.51
2023-05-15T21:29:16.656Z,72.26
2023-05-15T21:31:43.564Z,72.75
2023-05-15T21:34:10.227Z,71.82
2023-05-15T21:36:36.997Z,71.73
2023-05-15T21:39:03.759Z,71.57
2023-05-15T21:41:30.400Z,71.55
2023-05-15T21:43:57.020Z,71.47
2023-05-15T21:46:23.738Z,70.32
2023-05-15T21:48:50.376Z,70.29
2023-05-15T21:51:17.073Z,70.49
2023-05-15T21:53:43.828Z,69.95
2023-05-15T21:56:10.496Z,70.97
2023-05-15T21:58:37.102Z,70.23
2023-05-15T22:01:03.803Z,69.29
2023-05-15T22:03:30.594Z,68.75
2023-05-15T22:05:57.293Z,67.83
2023-05-15T22:08:23.986Z,67.23
2023-05-15T22:10:50.739Z,67.76
2023-05-15T22:13:17.389Z,67.96
2023-05-15T22:15:44.043Z,67.89
2023-05-15T22:18:10.720Z,67.99
2023-05-15T22:20:37.398Z,67.57
2023-05-15T22:23:04.018Z,67.38
2023-05-15T22:25:30.688Z,66.63
2023-05-15T22:27:57.415Z,66.42
2023-05-15T22:30:24.218Z,66.06
2023-05-15T22:32:51.011Z,65.45
2023-05-15T22:35:17.939Z,64.08
2023-05-15T22:37:44.602Z,64.06
2023-05-15T22:40:11.831Z,64.00
2023-05-15T22:42:38.459Z,63.84
2023-05-15T22:45:05.577Z,63.49
2023-05-15T22:47:32.251Z,62.63
2023-05-15T22:49:58.941Z,62.94
2023-05-15T22:52:25.796Z,64.02
2023-05-15T22:54:52.438Z,64.68
2023-05-15T22:57:19.158Z,65.30
2023-05-15T22:59:45.841Z,64.38
2023-05-15T23:02:12.490Z,64.94
2023-05-15T23:04:39.185Z,64.83
2023-05-15T23:07:05.833Z,65.08
2023-05-15T23:09:34.700Z,65.62
2023-05-15T23:12:01.350Z,65.91
2023-05-15T23:14:28.067Z,65.10
2023-05-15T23:16:54.754Z,65.97
2023-05-15T23:19:21.547Z,66.30
2023-05-15T23:21:48.277Z,66.43
2023-05-15T23:24:14.916Z,66.62
2023-05-15T23:26:41.837Z,67.39
2023-05-15T23:29:08.656Z,67.05
2023-05-15T23:31:35.338Z,66.90
2023-05-15T23:34:02.093Z,67.35
2023-05-15T23:36:28.769Z,66.88
2023-05-15T23:38:55.451Z,66.88
2023-05-15T23:41:22.219Z,67.00
2023-05-15T23:43:48.867Z,66.77
2023-05-15T23:46:16.522Z,66.27
2023-05-15T23:48:43.404Z,66.81
2023-05-15T23:51:10.537Z,66.35
2023-05-15T23:53:38.020Z,65.90
2023-05-15T23:56:06.069Z,66.17
2023-05-15T23:58:32.903Z,66.21
